createdAt,value
2018-10-09T00:02:27.491Z,27.47
2018-10-09T00:04:56.203Z,26.63
2018-10-09T00:07:25.679Z,24.60
2018-10-09T00:09:54.554Z,28.50
2018-10-09T00:12:23.424Z,25.73
2018-10-09T00:14:53.041Z,26.57
2018-10-09T00:17:23.393Z,28.23
2018-10-09T00:19:52.175Z,24.47
2018-10-09T00:22:21.660Z,31.63
2018-10-09T00:24:50.883Z,24.67
2018-10-09T00:27:20.056Z,25.40
2018-10-09T00:29:49.299Z,24.23
2018-10-09T00:32:19.420Z,24.90
2018-10-09T00:34:48.860Z,26.37
2018-10-09T00:37:17.593Z,27.60
2018-10-09T00:39:47.179Z,30.70
2018-10-09T00:42:16.728Z,27.60
2018-10-09T00:44:45.529Z,25.60
2018-10-09T00:47:14.198Z,26.23
2018-10-09T00:49:43.106Z,25.47
2018-10-09T00:52:11.929Z,29.20
2018-10-09T00:54:40.754Z,34.00
2018-10-09T00:57:09.750Z,33.37
2018-10-09T00:59:39.871Z,28.50
2018-10-09T01:02:09.285Z,27.53
2018-10-09T01:04:37.975Z,31.10
2018-10-09T01:07:06.988Z,28.20
2018-10-09T01:09:35.859Z,33.90
2018-10-09T01:12:04.728Z,35.33
2018-10-09T01:14:33.444Z,31.30
2018-10-09T01:17:02.364Z,32.57
2018-10-09T01:19:30.997Z,25.13
2018-10-09T01:21:59.966Z,30.83
2018-10-09T01:24:30.761Z,26.60
2018-10-09T01:27:00.400Z,26.93
2018-10-09T01:29:29.905Z,29.70
2018-10-09T01:31:59.009Z,31.93
2018-10-09T01:34:27.819Z,28.33
2018-10-09T01:36:57.397Z,33.17
2018-10-09T01:39:26.109Z,32.40
2018-10-09T01:41:54.921Z,29.10
2018-10-09T01:44:25.061Z,31.63
2018-10-09T01:46:54.301Z,26.27
2018-10-09T01:49:23.730Z,30.23
2018-10-09T01:51:52.622Z,30.23
2018-10-09T01:54:21.608Z,25.23
2018-10-09T01:56:50.294Z,29.13
2018-10-09T01:59:19.480Z,29.97
2018-10-09T02:01:48.199Z,27.67
2018-10-09T02:04:17.042Z,26.77
2018-10-09T02:06:46.071Z,24.67
2018-10-09T02:09:15.101Z,27.80
2018-10-09T02:11:43.747Z,27.57
2018-10-09T02:14:12.957Z,29.53
2018-10-09T02:16:42.750Z,26.60
2018-10-09T02:19:12.254Z,35.50
2018-10-09T02:21:41.374Z,28.03
2018-10-09T02:24:10.540Z,27.03
2018-10-09T02:26:39.469Z,28.87
2018-10-09T02:29:08.296Z,24.53
2018-10-09T02:31:37.455Z,28.97
2018-10-09T02:34:06.156Z,27.73
2018-10-09T02:36:34.910Z,25.87
2018-10-09T02:39:04.533Z,26.63
2018-10-09T02:41:33.297Z,27.63
2018-10-09T02:44:02.661Z,31.60
2018-10-09T02:46:31.616Z,30.50
2018-10-09T02:49:00.681Z,33.63
2018-10-09T02:51:29.448Z,27.20
2018-10-09T02:53:58.325Z,29.57
2018-10-09T02:56:27.125Z,27.33
2018-10-09T02:58:56.980Z,27.83
2018-10-09T03:01:26.012Z,27.10
2018-10-09T03:03:55.307Z,29.90
2018-10-09T03:06:24.279Z,28.37
2018-10-09T03:08:52.945Z,29.23
2018-10-09T03:11:22.870Z,26.60
2018-10-09T03:13:52.184Z,27.50
2018-10-09T03:16:21.233Z,30.33
2018-10-09T03:18:50.105Z,30.13
2018-10-09T03:21:18.855Z,33.63
2018-10-09T03:23:48.130Z,28.27
2018-10-09T03:26:17.085Z,29.67
2018-10-09T03:28:46.495Z,35.13
2018-10-09T03:31:15.359Z,30.63
2018-10-09T03:33:44.096Z,28.77
2018-10-09T03:36:13.170Z,28.13
2018-10-09T03:38:42.195Z,25.43
2018-10-09T03:41:11.155Z,32.80
2018-10-09T03:43:39.866Z,27.83
2018-10-09T03:46:09.150Z,33.90
2018-10-09T03:48:38.020Z,29.43
2018-10-09T03:51:06.901Z,31.10
2018-10-09T03:53:35.720Z,35.00
2018-10-09T03:56:04.820Z,30.43
2018-10-09T03:58:34.136Z,31.30
2018-10-09T04:01:03.275Z,33.03
2018-10-09T04:03:32.768Z,32.57
2018-10-09T04:06:01.979Z,33.17
2018-10-09T04:08:32.021Z,31.73
2018-10-09T04:11:01.262Z,34.40
2018-10-09T04:13:30.164Z,32.90
2018-10-09T04:15:58.872Z,29.13
2018-10-09T04:18:28.092Z,34.20
2018-10-09T04:20:57.380Z,29.60
2018-10-09T04:23:26.108Z,32.40
2018-10-09T04:25:54.995Z,33.10
2018-10-09T04:28:23.940Z,28.60
2018-10-09T04:30:52.797Z,30.40
2018-10-09T04:33:22.972Z,29.73
2018-10-09T04:35:52.336Z,28.50
2018-10-09T04:38:21.577Z,30.63
2018-10-09T04:40:50.245Z,40.90
2018-10-09T04:43:21.207Z,27.47
2018-10-09T04:45:51.420Z,31.23
2018-10-09T04:48:20.496Z,111.77
2018-10-09T04:50:49.936Z,30.87
2018-10-09T04:53:18.667Z,30.30
2018-10-09T04:55:47.381Z,29.90
2018-10-09T04:58:16.816Z,27.30
2018-10-09T05:00:45.931Z,27.63
2018-10-09T05:03:14.971Z,26.63
2018-10-09T05:05:44.230Z,32.30
2018-10-09T05:08:13.430Z,28.20
2018-10-09T05:10:42.713Z,27.83
2018-10-09T05:13:12.967Z,27.47
2018-10-09T05:15:42.097Z,30.37
2018-10-09T05:18:10.996Z,28.27
2018-10-09T05:20:39.653Z,40.07
2018-10-09T05:23:08.653Z,29.30
2018-10-09T05:25:37.932Z,26.63
2018-10-09T05:28:07.415Z,27.83
2018-10-09T05:30:36.557Z,30.60
2018-10-09T05:33:05.275Z,29.53
2018-10-09T05:35:34.160Z,25.93
2018-10-09T05:38:03.115Z,28.17
2018-10-09T05:40:32.168Z,24.27
2018-10-09T05:43:01.073Z,27.33
2018-10-09T05:45:29.824Z,26.83
2018-10-09T05:47:59.012Z,28.90
2018-10-09T05:50:28.465Z,30.37
2018-10-09T05:52:57.518Z,27.53
2018-10-09T05:55:26.683Z,30.37
2018-10-09T05:57:55.796Z,27.37
2018-10-09T06:00:25.323Z,28.67
2018-10-09T06:02:54.272Z,43.70
2018-10-09T06:05:23.377Z,30.10
2018-10-09T06:07:52.813Z,27.57
2018-10-09T06:10:21.876Z,35.17
2018-10-09T06:12:51.188Z,28.10
2018-10-09T06:15:20.453Z,26.00
2018-10-09T06:17:49.608Z,30.80
2018-10-09T06:20:18.922Z,29.20
2018-10-09T06:22:48.123Z,29.80
2018-10-09T06:25:17.303Z,29.93
2018-10-09T06:27:46.087Z,30.07
2018-10-09T06:30:14.862Z,25.23
2018-10-09T06:32:43.665Z,36.43
2018-10-09T06:35:12.471Z,33.93
2018-10-09T06:37:41.479Z,35.43
2018-10-09T06:40:10.716Z,32.27
2018-10-09T06:42:39.540Z,33.10
2018-10-09T06:45:09.208Z,29.63
2018-10-09T06:47:38.334Z,28.20
2018-10-09T06:50:07.582Z,30.90
2018-10-09T06:52:37.893Z,27.30
2018-10-09T06:55:06.996Z,28.57
2018-10-09T06:57:37.313Z,27.93
2018-10-09T07:00:06.122Z,29.30
2018-10-09T07:02:35.877Z,27.50
2018-10-09T07:05:04.942Z,30.17
2018-10-09T07:07:33.748Z,23.03
2018-10-09T07:10:02.900Z,26.37
2018-10-09T07:12:32.504Z,26.23
2018-10-09T07:15:01.797Z,24.90
2018-10-09T07:17:31.032Z,27.33
2018-10-09T07:20:00.163Z,27.03
2018-10-09T07:22:29.074Z,30.10
2018-10-09T07:24:58.896Z,26.23
2018-10-09T07:27:28.095Z,29.30
2018-10-09T07:29:57.063Z,28.10
2018-10-09T07:32:26.283Z,28.27
2018-10-09T07:34:55.488Z,28.80
2018-10-09T07:37:24.649Z,28.40
2018-10-09T07:39:53.602Z,35.83
2018-10-09T07:42:23.239Z,26.30
2018-10-09T07:44:51.919Z,57.00
2018-10-09T07:47:20.703Z,76.30
2018-10-09T07:49:49.853Z,58.13
2018-10-09T07:52:18.777Z,43.10
2018-10-09T07:54:47.613Z,31.20
2018-10-09T07:57:16.362Z,32.83
2018-10-09T07:59:45.743Z,34.40
2018-10-09T08:02:14.913Z,30.50
2018-10-09T08:04:44.296Z,32.77
2018-10-09T08:07:13.707Z,31.73
2018-10-09T08:09:42.752Z,38.37
2018-10-09T08:12:12.032Z,30.17
2018-10-09T08:14:40.799Z,36.37
2018-10-09T08:17:10.508Z,33.50
2018-10-09T08:19:39.256Z,31.60
2018-10-09T08:22:08.092Z,35.13
2018-10-09T08:24:37.047Z,37.00
2018-10-09T08:27:06.226Z,34.63
2018-10-09T08:29:35.693Z,35.00
2018-10-09T08:32:04.416Z,45.97
2018-10-09T08:34:33.959Z,38.40
2018-10-09T08:37:03.816Z,36.53
2018-10-09T08:39:32.519Z,31.57
2018-10-09T08:42:01.537Z,36.17
2018-10-09T08:44:30.944Z,33.63
2018-10-09T08:47:00.167Z,33.10
2018-10-09T08:49:29.203Z,36.30
2018-10-09T08:51:57.907Z,36.40
2018-10-09T08:54:26.949Z,33.00
2018-10-09T08:56:56.050Z,42.90
2018-10-09T08:59:25.133Z,39.47
2018-10-09T09:01:54.295Z,43.40
2018-10-09T09:04:23.200Z,37.90
2018-10-09T09:06:52.905Z,37.87
2018-10-09T09:09:22.014Z,40.43
2018-10-09T09:11:51.358Z,36.30
2018-10-09T09:14:20.152Z,40.43
2018-10-09T09:16:49.734Z,41.40
2018-10-09T09:19:18.959Z,39.07
2018-10-09T09:21:47.833Z,42.93
2018-10-09T09:24:17.417Z,40.00
2018-10-09T09:26:46.223Z,38.50
2018-10-09T09:29:14.888Z,37.30
2018-10-09T09:31:44.095Z,39.00
2018-10-09T09:34:12.977Z,36.67
2018-10-09T09:36:42.604Z,36.83
2018-10-09T09:39:11.900Z,37.10
2018-10-09T09:41:41.938Z,37.80
2018-10-09T09:44:11.352Z,34.67
2018-10-09T09:46:40.300Z,33.63
2018-10-09T09:49:09.793Z,30.10
2018-10-09T09:51:38.847Z,34.90
2018-10-09T09:54:08.094Z,32.23
2018-10-09T09:56:37.625Z,31.37
2018-10-09T09:59:06.672Z,29.20
2018-10-09T10:01:43.642Z,25.93
2018-10-09T10:04:14.768Z,28.33
2018-10-09T10:06:44.176Z,28.43
2018-10-09T10:09:14.229Z,26.50
2018-10-09T10:11:44.394Z,24.72
2018-10-09T10:14:13.223Z,24.35
2018-10-09T10:16:42.968Z,23.00
2018-10-09T10:19:13.187Z,22.70
2018-10-09T10:21:42.318Z,22.00
2018-10-09T10:24:11.549Z,22.25
2018-10-09T10:26:40.661Z,20.82
2018-10-09T10:29:09.692Z,20.15
2018-10-09T10:31:38.400Z,20.55
2018-10-09T10:34:07.427Z,21.65
2018-10-09T10:36:36.143Z,20.85
2018-10-09T10:39:07.044Z,20.08
2018-10-09T10:41:35.979Z,19.80
2018-10-09T10:44:05.296Z,17.98
2018-10-09T10:46:42.354Z,18.10
2018-10-09T10:49:13.936Z,16.23
2018-10-09T10:51:42.665Z,15.85
2018-10-09T10:54:12.802Z,14.43
2018-10-09T10:56:42.045Z,14.95
2018-10-09T10:59:10.938Z,13.22
2018-10-09T11:01:40.372Z,13.20
2018-10-09T11:04:09.455Z,12.80
2018-10-09T11:06:38.314Z,15.18
2018-10-09T11:09:10.216Z,13.40
2018-10-09T11:11:39.224Z,10.30
2018-10-09T11:14:08.651Z,18.80
2018-10-09T11:16:38.775Z,10.82
2018-10-09T11:19:09.053Z,11.75
2018-10-09T11:21:38.106Z,11.43
2018-10-09T11:24:07.055Z,11.00
2018-10-09T11:26:36.518Z,11.53
2018-10-09T11:29:05.875Z,12.68
2018-10-09T11:31:35.581Z,12.82
2018-10-09T11:34:04.347Z,12.47
2018-10-09T11:36:33.673Z,14.05
2018-10-09T11:39:02.463Z,13.22
2018-10-09T11:41:31.887Z,12.30
2018-10-09T11:44:00.763Z,12.10
2018-10-09T11:46:30.026Z,14.43
2018-10-09T11:48:59.634Z,16.37
2018-10-09T11:51:28.819Z,15.70
2018-10-09T11:53:57.548Z,16.87
2018-10-09T11:56:27.295Z,16.10
2018-10-09T11:58:56.102Z,14.87
2018-10-09T12:01:24.979Z,15.10
2018-10-09T12:03:54.209Z,14.05
2018-10-09T12:06:23.214Z,15.05
2018-10-09T12:08:52.623Z,16.02
2018-10-09T12:11:21.658Z,14.90
2018-10-09T12:13:50.395Z,17.80
2018-10-09T12:16:19.219Z,15.55
2018-10-09T12:18:47.951Z,19.10
2018-10-09T12:21:17.214Z,16.63
2018-10-09T12:23:46.850Z,16.77
2018-10-09T12:26:15.597Z,16.93
2018-10-09T12:28:45.271Z,15.55
2018-10-09T12:31:14.288Z,15.80
2018-10-09T12:33:44.500Z,16.48
2018-10-09T12:36:14.024Z,16.77
2018-10-09T12:38:43.050Z,20.50
2018-10-09T12:41:11.851Z,20.20
2018-10-09T12:43:40.638Z,17.10
2018-10-09T12:46:09.734Z,16.27
2018-10-09T12:48:38.550Z,15.13
2018-10-09T12:51:07.265Z,15.25
2018-10-09T12:53:36.695Z,14.23
2018-10-09T12:56:05.667Z,13.38
2018-10-09T12:58:34.623Z,13.10
2018-10-09T13:01:03.199Z,13.85
2018-10-09T13:03:31.987Z,13.35
2018-10-09T13:06:01.661Z,13.13
2018-10-09T13:08:30.456Z,12.50
2018-10-09T13:11:01.494Z,10.63
2018-10-09T13:13:30.390Z,14.07
2018-10-09T13:15:59.447Z,11.20
2018-10-09T13:18:29.280Z,9.80
2018-10-09T13:20:58.100Z,9.63
2018-10-09T13:23:27.081Z,10.23
2018-10-09T13:25:57.263Z,10.18
2018-10-09T13:28:26.445Z,9.68
2018-10-09T13:30:55.921Z,9.23
2018-10-09T13:33:25.013Z,10.38
2018-10-09T13:35:54.199Z,10.63
2018-10-09T13:38:23.101Z,10.75
2018-10-09T13:40:52.995Z,18.20
2018-10-09T13:43:21.918Z,11.73
2018-10-09T13:45:51.120Z,12.07
2018-10-09T13:48:20.342Z,11.37
2018-10-09T13:50:49.311Z,12.10
2018-10-09T13:53:18.680Z,14.50
2018-10-09T13:55:47.945Z,13.43
2018-10-09T13:58:17.134Z,11.83
2018-10-09T14:00:46.362Z,11.20
2018-10-09T14:03:15.394Z,12.10
2018-10-09T14:05:44.854Z,14.47
2018-10-09T14:08:13.639Z,10.63
2018-10-09T14:10:43.365Z,11.57
2018-10-09T14:13:12.209Z,9.35
2018-10-09T14:15:41.080Z,12.30
2018-10-09T14:18:10.028Z,10.13
2018-10-09T14:20:39.142Z,9.73
2018-10-09T14:23:08.507Z,10.33
2018-10-09T14:25:37.475Z,10.50
2018-10-09T14:28:06.993Z,12.57
2018-10-09T14:30:36.064Z,10.07
2018-10-09T14:33:05.289Z,10.83
2018-10-09T14:35:34.374Z,11.30
2018-10-09T14:38:03.813Z,17.00
2018-10-09T14:40:32.898Z,10.10
2018-10-09T14:43:02.190Z,10.93
2018-10-09T14:45:31.569Z,10.93
2018-10-09T14:48:00.666Z,11.33
2018-10-09T14:50:29.486Z,9.80
2018-10-09T14:52:59.237Z,9.90
2018-10-09T14:55:28.205Z,10.87
2018-10-09T14:57:56.834Z,11.30
2018-10-09T15:00:25.801Z,11.53
2018-10-09T15:02:55.015Z,9.97
2018-10-09T15:05:24.037Z,9.80
2018-10-09T15:07:53.103Z,10.87
2018-10-09T15:10:22.700Z,18.57
2018-10-09T15:12:51.515Z,14.40
2018-10-09T15:15:20.309Z,11.20
2018-10-09T15:17:49.309Z,14.30
2018-10-09T15:20:18.246Z,10.40
2018-10-09T15:22:47.042Z,10.15
2018-10-09T15:25:16.013Z,8.67
2018-10-09T15:27:45.283Z,8.77
2018-10-09T15:30:14.590Z,8.47
2018-10-09T15:32:43.315Z,9.07
2018-10-09T15:35:13.074Z,12.67
2018-10-09T15:37:42.714Z,10.10
2018-10-09T15:40:12.447Z,13.07
2018-10-09T15:42:41.228Z,11.27
2018-10-09T15:45:11.105Z,11.93
2018-10-09T15:47:40.030Z,17.23
2018-10-09T15:50:09.319Z,11.67
2018-10-09T15:52:38.511Z,13.77
2018-10-09T15:55:07.319Z,15.50
2018-10-09T15:57:35.969Z,12.20
2018-10-09T16:00:05.799Z,12.93
2018-10-09T16:02:35.315Z,15.53
2018-10-09T16:05:04.585Z,20.40
2018-10-09T16:07:33.745Z,16.50
2018-10-09T16:10:03.045Z,15.40
2018-10-09T16:12:32.049Z,17.23
2018-10-09T16:15:01.115Z,15.43
2018-10-09T16:17:29.939Z,16.13
2018-10-09T16:19:58.934Z,15.83
2018-10-09T16:22:28.042Z,24.77
2018-10-09T16:24:57.391Z,15.93
2018-10-09T16:27:27.246Z,15.10
2018-10-09T16:29:56.077Z,16.30
2018-10-09T16:32:25.300Z,16.43
2018-10-09T16:34:53.986Z,17.03
2018-10-09T16:37:22.692Z,19.70
2018-10-09T16:39:51.733Z,18.20
2018-10-09T16:42:20.994Z,18.67
2018-10-09T16:44:50.064Z,20.70
2018-10-09T16:47:19.711Z,19.90
2018-10-09T16:49:48.714Z,20.47
2018-10-09T16:52:17.888Z,20.40
2018-10-09T16:54:47.158Z,19.03
2018-10-09T16:57:17.366Z,17.73
2018-10-09T16:59:46.352Z,19.90
2018-10-09T17:02:15.205Z,20.57
2018-10-09T17:04:44.017Z,19.70
2018-10-09T17:07:13.262Z,27.47
2018-10-09T17:09:43.420Z,24.67
2018-10-09T17:12:12.712Z,28.47
2018-10-09T17:14:41.617Z,27.67
2018-10-09T17:17:10.980Z,25.70
2018-10-09T17:19:40.570Z,26.73
2018-10-09T17:22:10.916Z,28.90
2018-10-09T17:24:39.896Z,25.97
2018-10-09T17:27:09.044Z,29.27
2018-10-09T17:29:38.785Z,27.40
2018-10-09T17:32:08.030Z,28.67
2018-10-09T17:34:37.782Z,27.20
2018-10-09T17:37:06.814Z,31.00
2018-10-09T17:39:35.812Z,36.23
2018-10-09T17:42:05.213Z,32.47
2018-10-09T17:44:34.459Z,27.97
2018-10-09T17:47:07.433Z,29.17
2018-10-09T17:49:38.131Z,30.80
2018-10-09T17:52:07.159Z,36.93
2018-10-09T17:54:36.291Z,33.43
2018-10-09T17:57:05.593Z,31.57
2018-10-09T17:59:34.551Z,34.60
2018-10-09T18:02:03.931Z,32.43
2018-10-09T18:04:33.180Z,35.40
2018-10-09T18:07:02.432Z,88.37
2018-10-09T18:09:31.578Z,41.60
2018-10-09T18:12:01.002Z,36.50
2018-10-09T18:14:30.071Z,37.40
2018-10-09T18:16:59.454Z,37.73
2018-10-09T18:19:29.406Z,36.40
2018-10-09T18:21:58.175Z,39.00
2018-10-09T18:24:27.096Z,37.50
2018-10-09T18:26:56.166Z,39.23
2018-10-09T18:29:25.315Z,44.40
2018-10-09T18:31:54.511Z,41.60
2018-10-09T18:34:25.133Z,44.03
2018-10-09T18:36:55.391Z,41.40
2018-10-09T18:39:24.306Z,46.90
2018-10-09T18:41:53.814Z,40.20
2018-10-09T18:44:22.885Z,48.80
2018-10-09T18:46:52.027Z,45.07
2018-10-09T18:49:21.086Z,46.27
2018-10-09T18:51:50.287Z,43.70
2018-10-09T18:54:19.532Z,39.03
2018-10-09T18:56:48.782Z,43.67
2018-10-09T18:59:17.932Z,43.00
2018-10-09T19:01:46.781Z,40.13
2018-10-09T19:04:17.291Z,41.30
2018-10-09T19:06:46.580Z,44.93
2018-10-09T19:09:16.039Z,45.13
2018-10-09T19:11:45.266Z,45.07
2018-10-09T19:14:15.390Z,46.83
2018-10-09T19:16:44.680Z,44.83
2018-10-09T19:19:13.940Z,45.47
2018-10-09T19:21:42.956Z,49.53
2018-10-09T19:24:12.589Z,46.63
2018-10-09T19:26:42.021Z,49.07
2018-10-09T19:29:11.825Z,49.30
2018-10-09T19:31:40.780Z,41.43
2018-10-09T19:34:09.921Z,46.83
2018-10-09T19:36:39.380Z,44.90
2018-10-09T19:39:11.052Z,46.27
2018-10-09T19:41:40.495Z,46.17
2018-10-09T19:44:09.423Z,52.43
2018-10-09T19:46:39.442Z,42.30
2018-10-09T19:49:08.235Z,46.57
2018-10-09T19:51:37.522Z,49.37
2018-10-09T19:54:06.767Z,44.93
2018-10-09T19:56:35.880Z,46.33
2018-10-09T19:59:05.506Z,54.60
2018-10-09T20:01:34.312Z,43.43
2018-10-09T20:04:03.389Z,46.57
2018-10-09T20:06:32.748Z,46.87
2018-10-09T20:09:02.315Z,49.40
2018-10-09T20:11:31.228Z,42.67
2018-10-09T20:14:01.392Z,44.57
2018-10-09T20:16:30.831Z,47.23
2018-10-09T20:18:59.845Z,44.23
2018-10-09T20:21:29.048Z,44.37
2018-10-09T20:23:58.285Z,49.67
2018-10-09T20:26:27.371Z,45.80
2018-10-09T20:28:56.991Z,46.60
2018-10-09T20:31:26.548Z,48.60
2018-10-09T20:33:56.238Z,44.00
2018-10-09T20:36:25.368Z,47.63
2018-10-09T20:38:55.110Z,41.27
2018-10-09T20:41:23.893Z,43.03
2018-10-09T20:43:53.127Z,48.60
2018-10-09T20:46:22.278Z,49.50
2018-10-09T20:48:51.447Z,41.10
2018-10-09T20:51:20.788Z,38.27
2018-10-09T20:53:49.986Z,40.43
2018-10-09T20:56:19.071Z,48.00
2018-10-09T20:58:48.457Z,44.03
2018-10-09T21:01:17.666Z,52.53
2018-10-09T21:03:46.853Z,50.23
2018-10-09T21:06:17.898Z,61.63
2018-10-09T21:08:47.193Z,50.47
2018-10-09T21:11:16.505Z,43.90
2018-10-09T21:13:45.612Z,36.50
2018-10-09T21:16:15.017Z,47.07
2018-10-09T21:18:44.208Z,50.57
2018-10-09T21:21:13.613Z,46.20
2018-10-09T21:23:42.511Z,49.47
2018-10-09T21:26:11.865Z,43.83
2018-10-09T21:28:40.652Z,49.33
2018-10-09T21:31:10.537Z,43.50
2018-10-09T21:33:39.648Z,44.70
2018-10-09T21:36:08.814Z,41.43
2018-10-09T21:38:38.047Z,37.90
2018-10-09T21:41:07.026Z,44.97
2018-10-09T21:43:35.975Z,45.40
2018-10-09T21:46:05.553Z,42.20
2018-10-09T21:48:34.371Z,47.90
2018-10-09T21:51:03.305Z,44.67
2018-10-09T21:53:32.352Z,40.60
2018-10-09T21:56:01.033Z,41.17
2018-10-09T21:58:30.731Z,43.27
2018-10-09T22:01:04.993Z,40.07
2018-10-09T22:03:34.032Z,41.57
2018-10-09T22:06:03.642Z,42.50
2018-10-09T22:08:32.443Z,43.50
2018-10-09T22:11:01.668Z,41.87
2018-10-09T22:13:30.986Z,46.53
2018-10-09T22:16:00.294Z,42.87
2018-10-09T22:21:25.316Z,45.40
2018-10-09T22:23:54.982Z,41.17
2018-10-09T22:26:23.702Z,39.47
2018-10-09T22:28:52.938Z,41.30
2018-10-09T22:31:22.410Z,40.10
2018-10-09T22:33:51.340Z,43.17
2018-10-09T22:36:20.606Z,35.00
2018-10-09T22:38:49.384Z,42.27
2018-10-09T22:41:18.092Z,39.37
2018-10-09T22:43:47.189Z,39.47
2018-10-09T22:46:16.426Z,39.60
2018-10-09T22:48:45.808Z,38.00
2018-10-09T22:51:14.754Z,35.93
2018-10-09T22:53:43.669Z,34.00
2018-10-09T22:56:12.352Z,38.07
2018-10-09T22:58:41.137Z,38.40
2018-10-09T23:01:10.031Z,36.13
2018-10-09T23:03:38.570Z,34.57
2018-10-09T23:06:07.326Z,35.87
2018-10-09T23:08:36.471Z,30.33
2018-10-09T23:11:05.686Z,39.33
2018-10-09T23:13:34.924Z,36.83
2018-10-09T23:16:04.116Z,40.33
2018-10-09T23:18:33.021Z,33.40
2018-10-09T23:21:02.591Z,32.20
2018-10-09T23:23:31.690Z,34.73
2018-10-09T23:26:00.613Z,32.03
2018-10-09T23:28:30.355Z,33.07
2018-10-09T23:30:59.451Z,31.00
2018-10-09T23:33:28.591Z,33.13
2018-10-09T23:35:57.604Z,35.37
2018-10-09T23:38:27.082Z,35.17
2018-10-09T23:40:56.450Z,36.50
2018-10-09T23:43:25.517Z,36.47
2018-10-09T23:45:54.775Z,37.50
2018-10-09T23:48:23.345Z,33.00
2018-10-09T23:50:52.213Z,37.13
2018-10-09T23:53:21.536Z,35.27
2018-10-09T23:55:50.731Z,40.07
2018-10-09T23:58:20.087Z,31.10
